sensor_id;sensor_type;location;lat;lon;timestamp;P1;durP1;ratioP1;P2;durP2;ratioP2
66585;SDS011;53444;45.822;16.092;2023-08-31T00:01:16;3.80;;;1.43;;
66585;SDS011;53444;45.822;16.092;2023-08-31T00:03:43;2.17;;;1.20;;
66585;SDS011;53444;45.822;16.092;2023-08-31T00:06:10;2.28;;;1.55;;
66585;SDS011;53444;45.822;16.092;2023-08-31T00:08:37;2.17;;;1.48;;
66585;SDS011;53444;45.822;16.092;2023-08-31T00:11:03;3.10;;;1.50;;
66585;SDS011;53444;45.822;16.092;2023-08-31T00:13:31;3.13;;;1.17;;
66585;SDS011;53444;45.822;16.092;2023-08-31T00:15:58;1.88;;;1.13;;
66585;SDS011;53444;45.822;16.092;2023-08-31T00:18:25;2.63;;;1.30;;
66585;SDS011;53444;45.822;16.092;2023-08-31T00:20:52;1.90;;;1.40;;
66585;SDS011;53444;45.822;16.092;2023-08-31T00:23:18;3.13;;;1.45;;
66585;SDS011;53444;45.822;16.092;2023-08-31T00:25:45;1.60;;;1.23;;
66585;SDS011;53444;45.822;16.092;2023-08-31T00:28:13;2.33;;;1.30;;
66585;SDS011;53444;45.822;16.092;2023-08-31T00:30:41;1.85;;;1.33;;
66585;SDS011;53444;45.822;16.092;2023-08-31T00:33:09;2.17;;;1.02;;
66585;SDS011;53444;45.822;16.092;2023-08-31T00:35:36;2.00;;;1.50;;
66585;SDS011;53444;45.822;16.092;2023-08-31T00:38:02;2.00;;;1.53;;
66585;SDS011;53444;45.822;16.092;2023-08-31T00:40:29;2.17;;;1.15;;
66585;SDS011;53444;45.822;16.092;2023-08-31T00:43:04;2.30;;;1.33;;
66585;SDS011;53444;45.822;16.092;2023-08-31T00:45:32;1.83;;;1.15;;
66585;SDS011;53444;45.822;16.092;2023-08-31T00:48:01;2.28;;;1.20;;
66585;SDS011;53444;45.822;16.092;2023-08-31T00:50:28;2.20;;;1.40;;
66585;SDS011;53444;45.822;16.092;2023-08-31T00:52:55;2.80;;;1.30;;
66585;SDS011;53444;45.822;16.092;2023-08-31T00:55:21;2.38;;;1.48;;
66585;SDS011;53444;45.822;16.092;2023-08-31T00:57:48;3.22;;;1.50;;
66585;SDS011;53444;45.822;16.092;2023-08-31T01:00:15;2.65;;;1.40;;
66585;SDS011;53444;45.822;16.092;2023-08-31T01:02:44;1.70;;;1.03;;
66585;SDS011;53444;45.822;16.092;2023-08-31T01:05:25;4.28;;;1.60;;
66585;SDS011;53444;45.822;16.092;2023-08-31T01:08:02;2.33;;;1.30;;
66585;SDS011;53444;45.822;16.092;2023-08-31T01:10:39;2.40;;;1.50;;
66585;SDS011;53444;45.822;16.092;2023-08-31T01:13:13;1.70;;;1.23;;
66585;SDS011;53444;45.822;16.092;2023-08-31T01:15:44;2.27;;;1.40;;
66585;SDS011;53444;45.822;16.092;2023-08-31T01:18:13;3.38;;;1.40;;
66585;SDS011;53444;45.822;16.092;2023-08-31T01:20:46;2.30;;;1.60;;
66585;SDS011;53444;45.822;16.092;2023-08-31T01:23:22;3.13;;;1.35;;
66585;SDS011;53444;45.822;16.092;2023-08-31T01:25:58;2.42;;;1.50;;
66585;SDS011;53444;45.822;16.092;2023-08-31T01:28:25;2.10;;;1.60;;
66585;SDS011;53444;45.822;16.092;2023-08-31T01:30:52;2.88;;;1.20;;
66585;SDS011;53444;45.822;16.092;2023-08-31T01:33:18;2.47;;;1.30;;
66585;SDS011;53444;45.822;16.092;2023-08-31T01:35:46;2.45;;;1.08;;
66585;SDS011;53444;45.822;16.092;2023-08-31T01:38:18;3.22;;;1.10;;
66585;SDS011;53444;45.822;16.092;2023-08-31T01:40:49;3.23;;;1.20;;
66585;SDS011;53444;45.822;16.092;2023-08-31T01:43:20;2.88;;;1.42;;
66585;SDS011;53444;45.822;16.092;2023-08-31T01:45:48;2.88;;;1.33;;
66585;SDS011;53444;45.822;16.092;2023-08-31T01:48:15;1.88;;;1.38;;
66585;SDS011;53444;45.822;16.092;2023-08-31T01:50:42;1.70;;;1.13;;
66585;SDS011;53444;45.822;16.092;2023-08-31T01:53:10;3.57;;;1.27;;
66585;SDS011;53444;45.822;16.092;2023-08-31T01:55:37;1.77;;;1.13;;
66585;SDS011;53444;45.822;16.092;2023-08-31T01:58:04;2.42;;;1.38;;
66585;SDS011;53444;45.822;16.092;2023-08-31T02:00:32;1.63;;;1.13;;
66585;SDS011;53444;45.822;16.092;2023-08-31T02:03:00;2.05;;;1.48;;
66585;SDS011;53444;45.822;16.092;2023-08-31T02:05:27;2.23;;;1.17;;
66585;SDS011;53444;45.822;16.092;2023-08-31T02:07:54;1.80;;;1.10;;
66585;SDS011;53444;45.822;16.092;2023-08-31T02:10:20;2.40;;;1.30;;
66585;SDS011;53444;45.822;16.092;2023-08-31T02:12:47;2.40;;;1.40;;
66585;SDS011;53444;45.822;16.092;2023-08-31T02:15:14;2.05;;;1.00;;
66585;SDS011;53444;45.822;16.092;2023-08-31T02:17:42;3.23;;;1.27;;
66585;SDS011;53444;45.822;16.092;2023-08-31T02:20:09;2.00;;;1.20;;
66585;SDS011;53444;45.822;16.092;2023-08-31T02:22:36;1.77;;;1.30;;
66585;SDS011;53444;45.822;16.092;2023-08-31T02:25:03;1.98;;;1.10;;
66585;SDS011;53444;45.822;16.092;2023-08-31T02:27:30;1.75;;;1.15;;
66585;SDS011;53444;45.822;16.092;2023-08-31T02:29:57;1.87;;;1.30;;
66585;SDS011;53444;45.822;16.092;2023-08-31T02:32:23;2.58;;;1.20;;
66585;SDS011;53444;45.822;16.092;2023-08-31T02:34:51;4.40;;;1.35;;
66585;SDS011;53444;45.822;16.092;2023-08-31T02:37:18;1.40;;;1.08;;
66585;SDS011;53444;45.822;16.092;2023-08-31T02:39:44;2.60;;;1.20;;
66585;SDS011;53444;45.822;16.092;2023-08-31T02:42:11;2.27;;;1.27;;
66585;SDS011;53444;45.822;16.092;2023-08-31T02:44:37;1.55;;;0.95;;
66585;SDS011;53444;45.822;16.092;2023-08-31T02:47:04;4.47;;;0.90;;
66585;SDS011;53444;45.822;16.092;2023-08-31T02:49:31;3.10;;;1.20;;
66585;SDS011;53444;45.822;16.092;2023-08-31T02:51:59;1.95;;;1.20;;
66585;SDS011;53444;45.822;16.092;2023-08-31T02:54:25;1.80;;;1.30;;
66585;SDS011;53444;45.822;16.092;2023-08-31T02:56:52;1.85;;;1.35;;
66585;SDS011;53444;45.822;16.092;2023-08-31T02:59:18;3.25;;;1.13;;
66585;SDS011;53444;45.822;16.092;2023-08-31T03:01:45;1.80;;;1.30;;
66585;SDS011;53444;45.822;16.092;2023-08-31T03:04:12;2.28;;;1.23;;
66585;SDS011;53444;45.822;16.092;2023-08-31T03:06:39;2.57;;;1.40;;
66585;SDS011;53444;45.822;16.092;2023-08-31T03:09:07;1.90;;;1.15;;
66585;SDS011;53444;45.822;16.092;2023-08-31T03:11:34;1.70;;;1.30;;
66585;SDS011;53444;45.822;16.092;2023-08-31T03:14:01;1.63;;;1.10;;
66585;SDS011;53444;45.822;16.092;2023-08-31T03:16:27;1.65;;;1.23;;
66585;SDS011;53444;45.822;16.092;2023-08-31T03:18:54;2.50;;;1.40;;
66585;SDS011;53444;45.822;16.092;2023-08-31T03:21:21;1.70;;;1.20;;
66585;SDS011;53444;45.822;16.092;2023-08-31T03:23:47;1.77;;;1.13;;
66585;SDS011;53444;45.822;16.092;2023-08-31T03:26:15;2.17;;;1.40;;
66585;SDS011;53444;45.822;16.092;2023-08-31T03:28:42;2.85;;;1.45;;
66585;SDS011;53444;45.822;16.092;2023-08-31T03:31:08;1.80;;;1.20;;
66585;SDS011;53444;45.822;16.092;2023-08-31T03:33:35;2.00;;;0.98;;
66585;SDS011;53444;45.822;16.092;2023-08-31T03:36:02;1.85;;;1.00;;
66585;SDS011;53444;45.822;16.092;2023-08-31T03:38:29;1.52;;;1.10;;
66585;SDS011;53444;45.822;16.092;2023-08-31T03:40:56;1.40;;;1.30;;
66585;SDS011;53444;45.822;16.092;2023-08-31T03:43:25;1.80;;;1.30;;
66585;SDS011;53444;45.822;16.092;2023-08-31T03:45:53;2.42;;;1.42;;
66585;SDS011;53444;45.822;16.092;2023-08-31T03:48:21;1.80;;;1.20;;
66585;SDS011;53444;45.822;16.092;2023-08-31T03:50:48;2.05;;;1.20;;
66585;SDS011;53444;45.822;16.092;2023-08-31T03:53:15;3.75;;;1.45;;
66585;SDS011;53444;45.822;16.092;2023-08-31T03:55:42;2.07;;;1.40;;
66585;SDS011;53444;45.822;16.092;2023-08-31T03:58:08;2.05;;;1.40;;
66585;SDS011;53444;45.822;16.092;2023-08-31T04:00:37;2.08;;;1.50;;
66585;SDS011;53444;45.822;16.092;2023-08-31T04:03:04;2.90;;;1.40;;
66585;SDS011;53444;45.822;16.092;2023-08-31T04:05:31;1.98;;;1.40;;
66585;SDS011;53444;45.822;16.092;2023-08-31T04:07:59;2.40;;;1.40;;
66585;SDS011;53444;45.822;16.092;2023-08-31T04:10:25;1.90;;;1.45;;
66585;SDS011;53444;45.822;16.092;2023-08-31T04:12:52;2.47;;;1.80;;
66585;SDS011;53444;45.822;16.092;2023-08-31T04:15:19;3.13;;;1.83;;
66585;SDS011;53444;45.822;16.092;2023-08-31T04:17:47;3.58;;;2.00;;
66585;SDS011;53444;45.822;16.092;2023-08-31T04:20:14;2.57;;;1.83;;
66585;SDS011;53444;45.822;16.092;2023-08-31T04:22:41;5.53;;;2.45;;
66585;SDS011;53444;45.822;16.092;2023-08-31T04:25:08;3.20;;;2.00;;
66585;SDS011;53444;45.822;16.092;2023-08-31T04:27:34;4.53;;;2.20;;
66585;SDS011;53444;45.822;16.092;2023-08-31T04:30:04;3.28;;;2.20;;
66585;SDS011;53444;45.822;16.092;2023-08-31T04:32:32;3.37;;;1.67;;
66585;SDS011;53444;45.822;16.092;2023-08-31T04:35:00;2.80;;;1.75;;
66585;SDS011;53444;45.822;16.092;2023-08-31T04:37:28;2.80;;;2.00;;
66585;SDS011;53444;45.822;16.092;2023-08-31T04:39:54;4.07;;;1.50;;
66585;SDS011;53444;45.822;16.092;2023-08-31T04:42:21;3.72;;;1.90;;
66585;SDS011;53444;45.822;16.092;2023-08-31T04:44:48;3.50;;;1.70;;
66585;SDS011;53444;45.822;16.092;2023-08-31T04:47:14;3.58;;;1.77;;
66585;SDS011;53444;45.822;16.092;2023-08-31T04:49:41;2.45;;;1.30;;
66585;SDS011;53444;45.822;16.092;2023-08-31T04:52:09;1.95;;;1.17;;
66585;SDS011;53444;45.822;16.092;2023-08-31T04:54:35;1.67;;;1.27;;
66585;SDS011;53444;45.822;16.092;2023-08-31T04:57:02;3.00;;;1.30;;
66585;SDS011;53444;45.822;16.092;2023-08-31T04:59:29;1.90;;;1.00;;
66585;SDS011;53444;45.822;16.092;2023-08-31T05:01:55;3.67;;;1.30;;
66585;SDS011;53444;45.822;16.092;2023-08-31T05:04:22;1.80;;;1.40;;
66585;SDS011;53444;45.822;16.092;2023-08-31T05:06:49;1.30;;;1.10;;
66585;SDS011;53444;45.822;16.092;2023-08-31T05:09:20;1.60;;;1.10;;
66585;SDS011;53444;45.822;16.092;2023-08-31T05:11:50;1.65;;;1.15;;
66585;SDS011;53444;45.822;16.092;2023-08-31T05:14:20;3.35;;;1.02;;
66585;SDS011;53444;45.822;16.092;2023-08-31T05:16:47;1.88;;;1.40;;
66585;SDS011;53444;45.822;16.092;2023-08-31T05:19:13;1.70;;;1.20;;
66585;SDS011;53444;45.822;16.092;2023-08-31T05:21:43;2.10;;;1.30;;
66585;SDS011;53444;45.822;16.092;2023-08-31T05:24:09;1.88;;;1.30;;
66585;SDS011;53444;45.822;16.092;2023-08-31T05:26:37;2.13;;;1.20;;
66585;SDS011;53444;45.822;16.092;2023-08-31T05:29:04;1.92;;;1.20;;
66585;SDS011;53444;45.822;16.092;2023-08-31T05:31:31;2.38;;;1.40;;
66585;SDS011;53444;45.822;16.092;2023-08-31T05:33:58;2.20;;;1.40;;
66585;SDS011;53444;45.822;16.092;2023-08-31T05:36:25;1.60;;;1.20;;
66585;SDS011;53444;45.822;16.092;2023-08-31T05:38:51;1.90;;;1.50;;
66585;SDS011;53444;45.822;16.092;2023-08-31T05:41:18;2.53;;;1.30;;
66585;SDS011;53444;45.822;16.092;2023-08-31T05:43:47;1.98;;;1.30;;
66585;SDS011;53444;45.822;16.092;2023-08-31T05:46:14;2.73;;;1.30;;
66585;SDS011;53444;45.822;16.092;2023-08-31T05:48:40;3.97;;;1.40;;
66585;SDS011;53444;45.822;16.092;2023-08-31T05:51:10;1.90;;;1.50;;
66585;SDS011;53444;45.822;16.092;2023-08-31T05:53:37;1.88;;;1.42;;
66585;SDS011;53444;45.822;16.092;2023-08-31T05:56:08;3.28;;;1.58;;
66585;SDS011;53444;45.822;16.092;2023-08-31T05:58:34;2.73;;;1.67;;
66585;SDS011;53444;45.822;16.092;2023-08-31T06:01:03;3.45;;;1.20;;
66585;SDS011;53444;45.822;16.092;2023-08-31T06:03:31;2.28;;;1.45;;
66585;SDS011;53444;45.822;16.092;2023-08-31T06:05:58;2.30;;;1.30;;
66585;SDS011;53444;45.822;16.092;2023-08-31T06:08:25;2.10;;;1.60;;
66585;SDS011;53444;45.822;16.092;2023-08-31T06:10:55;3.03;;;1.20;;
66585;SDS011;53444;45.822;16.092;2023-08-31T06:13:25;2.78;;;1.10;;
66585;SDS011;53444;45.822;16.092;2023-08-31T06:15:52;2.70;;;1.58;;
66585;SDS011;53444;45.822;16.092;2023-08-31T06:18:22;2.15;;;1.45;;
66585;SDS011;53444;45.822;16.092;2023-08-31T06:20:48;2.53;;;1.63;;
66585;SDS011;53444;45.822;16.092;2023-08-31T06:23:15;2.17;;;1.60;;
66585;SDS011;53444;45.822;16.092;2023-08-31T06:25:41;4.78;;;1.60;;
66585;SDS011;53444;45.822;16.092;2023-08-31T06:28:10;3.90;;;1.55;;
66585;SDS011;53444;45.822;16.092;2023-08-31T06:30:37;2.88;;;1.70;;
66585;SDS011;53444;45.822;16.092;2023-08-31T06:33:06;2.47;;;1.73;;
66585;SDS011;53444;45.822;16.092;2023-08-31T06:35:34;2.23;;;1.40;;
66585;SDS011;53444;45.822;16.092;2023-08-31T06:38:00;2.75;;;1.88;;
66585;SDS011;53444;45.822;16.092;2023-08-31T06:40:27;2.72;;;1.70;;
66585;SDS011;53444;45.822;16.092;2023-08-31T06:42:54;4.18;;;1.63;;
66585;SDS011;53444;45.822;16.092;2023-08-31T06:45:20;3.47;;;1.70;;
66585;SDS011;53444;45.822;16.092;2023-08-31T06:47:47;5.27;;;2.20;;
66585;SDS011;53444;45.822;16.092;2023-08-31T06:50:14;4.15;;;1.85;;
66585;SDS011;53444;45.822;16.092;2023-08-31T06:52:42;3.22;;;2.10;;
66585;SDS011;53444;45.822;16.092;2023-08-31T06:55:11;3.35;;;1.80;;
66585;SDS011;53444;45.822;16.092;2023-08-31T06:57:38;3.45;;;2.10;;
66585;SDS011;53444;45.822;16.092;2023-08-31T07:00:05;2.77;;;1.90;;
66585;SDS011;53444;45.822;16.092;2023-08-31T07:02:33;2.40;;;1.75;;
66585;SDS011;53444;45.822;16.092;2023-08-31T07:05:00;2.38;;;1.63;;
66585;SDS011;53444;45.822;16.092;2023-08-31T07:07:29;2.85;;;1.90;;
66585;SDS011;53444;45.822;16.092;2023-08-31T07:09:57;4.18;;;2.00;;
66585;SDS011;53444;45.822;16.092;2023-08-31T07:12:23;2.87;;;2.10;;
66585;SDS011;53444;45.822;16.092;2023-08-31T07:14:50;3.47;;;2.30;;
66585;SDS011;53444;45.822;16.092;2023-08-31T07:17:17;3.58;;;2.50;;
66585;SDS011;53444;45.822;16.092;2023-08-31T07:19:44;5.10;;;2.65;;
66585;SDS011;53444;45.822;16.092;2023-08-31T07:22:11;4.00;;;2.10;;
66585;SDS011;53444;45.822;16.092;2023-08-31T07:24:37;5.17;;;2.30;;
66585;SDS011;53444;45.822;16.092;2023-08-31T07:27:05;5.70;;;2.40;;
66585;SDS011;53444;45.822;16.092;2023-08-31T07:29:32;3.75;;;2.15;;
66585;SDS011;53444;45.822;16.092;2023-08-31T07:31:58;2.60;;;1.95;;
66585;SDS011;53444;45.822;16.092;2023-08-31T07:34:25;3.38;;;2.00;;
66585;SDS011;53444;45.822;16.092;2023-08-31T07:36:52;2.40;;;1.53;;
66585;SDS011;53444;45.822;16.092;2023-08-31T07:39:19;2.70;;;2.10;;
66585;SDS011;53444;45.822;16.092;2023-08-31T07:41:46;3.67;;;1.85;;
66585;SDS011;53444;45.822;16.092;2023-08-31T07:44:13;2.67;;;1.85;;
66585;SDS011;53444;45.822;16.092;2023-08-31T07:46:40;3.20;;;1.65;;
66585;SDS011;53444;45.822;16.092;2023-08-31T07:49:07;4.37;;;2.20;;
66585;SDS011;53444;45.822;16.092;2023-08-31T07:51:33;2.60;;;1.80;;
66585;SDS011;53444;45.822;16.092;2023-08-31T07:54:00;2.17;;;1.50;;
66585;SDS011;53444;45.822;16.092;2023-08-31T07:56:28;2.15;;;1.35;;
66585;SDS011;53444;45.822;16.092;2023-08-31T07:58:55;2.30;;;1.75;;
66585;SDS011;53444;45.822;16.092;2023-08-31T08:01:22;3.53;;;1.73;;
66585;SDS011;53444;45.822;16.092;2023-08-31T08:03:49;2.92;;;1.73;;
66585;SDS011;53444;45.822;16.092;2023-08-31T08:06:16;2.25;;;1.63;;
66585;SDS011;53444;45.822;16.092;2023-08-31T08:08:42;2.35;;;1.80;;
66585;SDS011;53444;45.822;16.092;2023-08-31T08:11:09;3.22;;;2.00;;
66585;SDS011;53444;45.822;16.092;2023-08-31T08:13:35;1.80;;;1.47;;
66585;SDS011;53444;45.822;16.092;2023-08-31T08:16:02;2.60;;;2.00;;
66585;SDS011;53444;45.822;16.092;2023-08-31T08:18:31;2.10;;;1.75;;
66585;SDS011;53444;45.822;16.092;2023-08-31T08:20:57;2.03;;;1.63;;
66585;SDS011;53444;45.822;16.092;2023-08-31T08:23:24;2.60;;;1.50;;
66585;SDS011;53444;45.822;16.092;2023-08-31T08:25:50;2.10;;;1.80;;
66585;SDS011;53444;45.822;16.092;2023-08-31T08:28:17;2.60;;;1.50;;
66585;SDS011;53444;45.822;16.092;2023-08-31T08:30:44;2.17;;;1.52;;
66585;SDS011;53444;45.822;16.092;2023-08-31T08:33:10;1.90;;;1.50;;
66585;SDS011;53444;45.822;16.092;2023-08-31T08:35:38;2.70;;;1.40;;
66585;SDS011;53444;45.822;16.092;2023-08-31T08:38:05;1.73;;;1.30;;
66585;SDS011;53444;45.822;16.092;2023-08-31T08:40:31;1.55;;;1.30;;
66585;SDS011;53444;45.822;16.092;2023-08-31T08:42:58;2.47;;;1.10;;
66585;SDS011;53444;45.822;16.092;2023-08-31T08:45:29;1.92;;;1.35;;
66585;SDS011;53444;45.822;16.092;2023-08-31T08:48:01;2.05;;;1.52;;
66585;SDS011;53444;45.822;16.092;2023-08-31T08:50:31;3.73;;;2.23;;
66585;SDS011;53444;45.822;16.092;2023-08-31T08:53:01;2.08;;;1.60;;
66585;SDS011;53444;45.822;16.092;2023-08-31T08:55:28;3.58;;;1.80;;
66585;SDS011;53444;45.822;16.092;2023-08-31T08:57:55;2.70;;;1.67;;
66585;SDS011;53444;45.822;16.092;2023-08-31T09:00:22;2.50;;;1.70;;
66585;SDS011;53444;45.822;16.092;2023-08-31T09:02:48;2.23;;;1.50;;
66585;SDS011;53444;45.822;16.092;2023-08-31T09:05:15;1.75;;;1.45;;
66585;SDS011;53444;45.822;16.092;2023-08-31T09:10:32;2.03;;;1.52;;
66585;SDS011;53444;45.822;16.092;2023-08-31T09:13:00;2.05;;;1.23;;
66585;SDS011;53444;45.822;16.092;2023-08-31T09:15:35;2.40;;;1.40;;
66585;SDS011;53444;45.822;16.092;2023-08-31T09:18:03;3.15;;;1.55;;
66585;SDS011;53444;45.822;16.092;2023-08-31T09:20:30;2.58;;;1.65;;
66585;SDS011;53444;45.822;16.092;2023-08-31T09:22:57;2.03;;;1.58;;
66585;SDS011;53444;45.822;16.092;2023-08-31T09:25:25;3.20;;;1.80;;
66585;SDS011;53444;45.822;16.092;2023-08-31T09:27:52;2.10;;;1.53;;
66585;SDS011;53444;45.822;16.092;2023-08-31T09:30:18;2.88;;;1.70;;
66585;SDS011;53444;45.822;16.092;2023-08-31T09:32:51;3.17;;;1.73;;
66585;SDS011;53444;45.822;16.092;2023-08-31T09:35:19;3.50;;;1.70;;
66585;SDS011;53444;45.822;16.092;2023-08-31T09:37:54;2.05;;;1.50;;
66585;SDS011;53444;45.822;16.092;2023-08-31T09:40:22;1.70;;;1.30;;
66585;SDS011;53444;45.822;16.092;2023-08-31T09:42:50;2.53;;;1.40;;
66585;SDS011;53444;45.822;16.092;2023-08-31T09:45:17;1.95;;;1.60;;
66585;SDS011;53444;45.822;16.092;2023-08-31T09:47:44;2.53;;;1.63;;
66585;SDS011;53444;45.822;16.092;2023-08-31T09:50:11;2.15;;;1.50;;
66585;SDS011;53444;45.822;16.092;2023-08-31T09:52:37;2.73;;;1.50;;
66585;SDS011;53444;45.822;16.092;2023-08-31T09:55:06;2.08;;;1.48;;
66585;SDS011;53444;45.822;16.092;2023-08-31T09:57:34;1.90;;;1.60;;
66585;SDS011;53444;45.822;16.092;2023-08-31T10:00:02;3.10;;;1.40;;
66585;SDS011;53444;45.822;16.092;2023-08-31T10:02:30;3.17;;;1.83;;
66585;SDS011;53444;45.822;16.092;2023-08-31T10:04:57;2.23;;;1.50;;
66585;SDS011;53444;45.822;16.092;2023-08-31T10:07:25;1.52;;;1.42;;
66585;SDS011;53444;45.822;16.092;2023-08-31T10:09:52;2.10;;;1.52;;
66585;SDS011;53444;45.822;16.092;2023-08-31T10:12:19;3.03;;;1.38;;
66585;SDS011;53444;45.822;16.092;2023-08-31T10:14:48;1.92;;;1.70;;
66585;SDS011;53444;45.822;16.092;2023-08-31T10:17:19;4.00;;;1.60;;
66585;SDS011;53444;45.822;16.092;2023-08-31T10:19:46;3.70;;;1.75;;
66585;SDS011;53444;45.822;16.092;2023-08-31T10:22:13;4.03;;;2.20;;
66585;SDS011;53444;45.822;16.092;2023-08-31T10:24:58;1.55;;;1.40;;
66585;SDS011;53444;45.822;16.092;2023-08-31T10:27:28;1.80;;;1.67;;
66585;SDS011;53444;45.822;16.092;2023-08-31T10:30:12;1.97;;;1.73;;
66585;SDS011;53444;45.822;16.092;2023-08-31T10:32:41;2.60;;;1.80;;
66585;SDS011;53444;45.822;16.092;2023-08-31T10:35:08;2.10;;;1.60;;
66585;SDS011;53444;45.822;16.092;2023-08-31T10:37:35;3.22;;;2.08;;
66585;SDS011;53444;45.822;16.092;2023-08-31T10:40:08;5.90;;;2.70;;
66585;SDS011;53444;45.822;16.092;2023-08-31T10:42:43;2.77;;;1.90;;
66585;SDS011;53444;45.822;16.092;2023-08-31T10:45:10;3.80;;;1.90;;
66585;SDS011;53444;45.822;16.092;2023-08-31T10:47:37;2.17;;;1.67;;
66585;SDS011;53444;45.822;16.092;2023-08-31T10:50:20;2.25;;;1.60;;
66585;SDS011;53444;45.822;16.092;2023-08-31T10:52:47;2.22;;;1.90;;
66585;SDS011;53444;45.822;16.092;2023-08-31T10:55:15;2.70;;;1.43;;
66585;SDS011;53444;45.822;16.092;2023-08-31T10:57:41;2.10;;;1.63;;
66585;SDS011;53444;45.822;16.092;2023-08-31T11:00:08;2.10;;;1.90;;
66585;SDS011;53444;45.822;16.092;2023-08-31T11:02:37;1.90;;;1.67;;
66585;SDS011;53444;45.822;16.092;2023-08-31T11:05:08;2.03;;;1.60;;
66585;SDS011;53444;45.822;16.092;2023-08-31T11:07:37;2.30;;;1.77;;
66585;SDS011;53444;45.822;16.092;2023-08-31T11:10:13;2.30;;;1.80;;
66585;SDS011;53444;45.822;16.092;2023-08-31T11:12:42;2.25;;;1.90;;
66585;SDS011;53444;45.822;16.092;2023-08-31T11:15:11;2.95;;;1.95;;
66585;SDS011;53444;45.822;16.092;2023-08-31T11:17:39;1.92;;;1.70;;
66585;SDS011;53444;45.822;16.092;2023-08-31T11:20:06;1.70;;;1.30;;
66585;SDS011;53444;45.822;16.092;2023-08-31T11:22:34;1.98;;;1.42;;
66585;SDS011;53444;45.822;16.092;2023-08-31T11:25:04;2.40;;;1.73;;
66585;SDS011;53444;45.822;16.092;2023-08-31T11:27:31;1.80;;;1.30;;
66585;SDS011;53444;45.822;16.092;2023-08-31T11:29:58;1.95;;;1.65;;
66585;SDS011;53444;45.822;16.092;2023-08-31T11:32:24;2.00;;;1.50;;
66585;SDS011;53444;45.822;16.092;2023-08-31T11:34:51;2.22;;;1.40;;
66585;SDS011;53444;45.822;16.092;2023-08-31T11:37:17;3.72;;;1.73;;
66585;SDS011;53444;45.822;16.092;2023-08-31T11:39:49;1.60;;;1.50;;
66585;SDS011;53444;45.822;16.092;2023-08-31T11:42:18;3.65;;;1.70;;
66585;SDS011;53444;45.822;16.092;2023-08-31T11:44:46;4.30;;;1.70;;
66585;SDS011;53444;45.822;16.092;2023-08-31T11:47:14;4.30;;;1.63;;
66585;SDS011;53444;45.822;16.092;2023-08-31T11:49:41;2.25;;;1.80;;
66585;SDS011;53444;45.822;16.092;2023-08-31T11:52:09;2.00;;;1.50;;
66585;SDS011;53444;45.822;16.092;2023-08-31T11:54:37;3.08;;;1.80;;
66585;SDS011;53444;45.822;16.092;2023-08-31T11:57:07;1.70;;;1.50;;
66585;SDS011;53444;45.822;16.092;2023-08-31T11:59:35;1.50;;;1.40;;
66585;SDS011;53444;45.822;16.092;2023-08-31T12:02:05;3.10;;;1.73;;
66585;SDS011;53444;45.822;16.092;2023-08-31T12:04:33;2.60;;;1.40;;
66585;SDS011;53444;45.822;16.092;2023-08-31T12:07:01;2.45;;;1.70;;
66585;SDS011;53444;45.822;16.092;2023-08-31T12:09:29;1.80;;;1.40;;
66585;SDS011;53444;45.822;16.092;2023-08-31T12:11:56;2.25;;;1.60;;
66585;SDS011;53444;45.822;16.092;2023-08-31T12:14:25;1.67;;;1.58;;
66585;SDS011;53444;45.822;16.092;2023-08-31T12:16:59;2.15;;;1.60;;
66585;SDS011;53444;45.822;16.092;2023-08-31T12:19:27;2.10;;;1.80;;
66585;SDS011;53444;45.822;16.092;2023-08-31T12:21:54;2.20;;;1.77;;
66585;SDS011;53444;45.822;16.092;2023-08-31T12:24:21;2.25;;;1.60;;
66585;SDS011;53444;45.822;16.092;2023-08-31T12:26:48;1.40;;;1.20;;
66585;SDS011;53444;45.822;16.092;2023-08-31T12:29:15;1.65;;;1.30;;
66585;SDS011;53444;45.822;16.092;2023-08-31T12:31:43;2.05;;;1.70;;
66585;SDS011;53444;45.822;16.092;2023-08-31T12:34:10;2.10;;;1.47;;
66585;SDS011;53444;45.822;16.092;2023-08-31T12:36:37;1.70;;;1.40;;
66585;SDS011;53444;45.822;16.092;2023-08-31T12:39:06;1.85;;;1.75;;
66585;SDS011;53444;45.822;16.092;2023-08-31T12:41:42;1.40;;;1.30;;
66585;SDS011;53444;45.822;16.092;2023-08-31T12:44:12;2.03;;;1.63;;
66585;SDS011;53444;45.822;16.092;2023-08-31T12:46:39;1.47;;;1.37;;
66585;SDS011;53444;45.822;16.092;2023-08-31T12:49:07;2.05;;;1.70;;
66585;SDS011;53444;45.822;16.092;2023-08-31T12:51:34;2.00;;;1.80;;
66585;SDS011;53444;45.822;16.092;2023-08-31T12:54:00;2.22;;;1.55;;
66585;SDS011;53444;45.822;16.092;2023-08-31T12:56:28;1.77;;;1.58;;
66585;SDS011;53444;45.822;16.092;2023-08-31T12:58:55;1.70;;;1.60;;
66585;SDS011;53444;45.822;16.092;2023-08-31T13:01:22;1.90;;;1.70;;
66585;SDS011;53444;45.822;16.092;2023-08-31T13:03:50;2.17;;;1.98;;
66585;SDS011;53444;45.822;16.092;2023-08-31T13:06:18;1.88;;;1.75;;
66585;SDS011;53444;45.822;16.092;2023-08-31T13:08:46;2.10;;;1.60;;
66585;SDS011;53444;45.822;16.092;2023-08-31T13:11:12;2.47;;;1.80;;
66585;SDS011;53444;45.822;16.092;2023-08-31T13:13:40;2.50;;;2.00;;
66585;SDS011;53444;45.822;16.092;2023-08-31T13:16:07;1.58;;;1.48;;
66585;SDS011;53444;45.822;16.092;2023-08-31T13:18:35;1.83;;;1.52;;
66585;SDS011;53444;45.822;16.092;2023-08-31T13:21:01;2.30;;;1.60;;
66585;SDS011;53444;45.822;16.092;2023-08-31T13:23:30;1.97;;;1.43;;
66585;SDS011;53444;45.822;16.092;2023-08-31T13:25:56;3.40;;;1.70;;
66585;SDS011;53444;45.822;16.092;2023-08-31T13:28:23;2.22;;;1.77;;
66585;SDS011;53444;45.822;16.092;2023-08-31T13:30:50;2.15;;;1.95;;
66585;SDS011;53444;45.822;16.092;2023-08-31T13:33:16;2.00;;;1.88;;
66585;SDS011;53444;45.822;16.092;2023-08-31T13:35:44;1.80;;;1.50;;
66585;SDS011;53444;45.822;16.092;2023-08-31T13:38:11;3.17;;;1.50;;
66585;SDS011;53444;45.822;16.092;2023-08-31T13:40:40;2.75;;;1.90;;
66585;SDS011;53444;45.822;16.092;2023-08-31T13:43:06;2.03;;;1.73;;
66585;SDS011;53444;45.822;16.092;2023-08-31T13:45:33;2.15;;;1.80;;
66585;SDS011;53444;45.822;16.092;2023-08-31T13:48:00;2.60;;;1.70;;
66585;SDS011;53444;45.822;16.092;2023-08-31T13:50:29;1.90;;;1.65;;
66585;SDS011;53444;45.822;16.092;2023-08-31T13:52:56;4.28;;;2.08;;
66585;SDS011;53444;45.822;16.092;2023-08-31T13:55:22;2.17;;;2.00;;
66585;SDS011;53444;45.822;16.092;2023-08-31T13:57:51;2.58;;;1.83;;
66585;SDS011;53444;45.822;16.092;2023-08-31T14:00:17;1.93;;;1.73;;
66585;SDS011;53444;45.822;16.092;2023-08-31T14:02:44;2.30;;;2.05;;
66585;SDS011;53444;45.822;16.092;2023-08-31T14:05:11;3.15;;;1.90;;
66585;SDS011;53444;45.822;16.092;2023-08-31T14:07:39;2.50;;;1.55;;
66585;SDS011;53444;45.822;16.092;2023-08-31T14:10:06;2.53;;;1.80;;
66585;SDS011;53444;45.822;16.092;2023-08-31T14:12:34;2.30;;;1.80;;
66585;SDS011;53444;45.822;16.092;2023-08-31T14:15:02;1.95;;;1.70;;
66585;SDS011;53444;45.822;16.092;2023-08-31T14:17:29;1.88;;;1.77;;
66585;SDS011;53444;45.822;16.092;2023-08-31T14:19:58;2.20;;;1.75;;
66585;SDS011;53444;45.822;16.092;2023-08-31T14:22:25;2.75;;;2.17;;
66585;SDS011;53444;45.822;16.092;2023-08-31T14:24:51;2.17;;;1.60;;
66585;SDS011;53444;45.822;16.092;2023-08-31T14:27:18;2.15;;;1.40;;
66585;SDS011;53444;45.822;16.092;2023-08-31T14:29:44;2.30;;;1.60;;
66585;SDS011;53444;45.822;16.092;2023-08-31T14:32:13;2.67;;;1.80;;
66585;SDS011;53444;45.822;16.092;2023-08-31T14:34:39;1.80;;;1.70;;
66585;SDS011;53444;45.822;16.092;2023-08-31T14:37:06;3.27;;;1.83;;
66585;SDS011;53444;45.822;16.092;2023-08-31T14:39:33;1.85;;;1.70;;